Fairmont, North Carolina
Current Conditions -  °F | °C
As of 10:54 PM on Tuesday 21 Oct 2014 (Local Time) from KLBT Reporting Station
Few Clouds Few Clouds  
Wind Chill: 62°   Ceiling: Unl
Heat Index: 62°   Visibility: 10mi
Dew Point: 48°   Wind: 7mph
Humidity: 60%   Direction: 330°NNW
Pressure: 29.92"   Gusts: NA
Location:  34.5°N, 79.11°W
Report Text: KLBT 220254Z AUTO 33006KT 10SM FEW065 17/09 A2992 RMK AO2 SLP131 T01670089 53018
Loading
Personal Weather Stations






























Interactive Weather Map
Tropical Storm Tracking
New forecast layout! Learn more

10-Day Weather Forecast

Advertisements
Track Severe Weather on mobile